Time;durP1;ratioP1;P1;durP2;ratioP2;P2;SDS_P1;SDS_P2;PMS_P1;PMS_P2;Temp;Humidity;BMP_temperature;BMP_pressure;BME280_temperature;BME280_humidity;BME280_pressure;Samples;Min_cycle;Max_cycle;Signal;HPM_P1;HPM_P2
2021/12/03 00:01:53;;;;;;;6.05;2.85;;;;;;;;;;5016028;28;20036;-75
2021/12/03 00:04:19;;;;;;;5.25;2.22;;;;;;;;;;5026318;28;20394;-77
2021/12/03 00:06:44;;;;;;;5.85;3.50;;;;;;;;;;5026998;28;20029;-77
2021/12/03 00:09:11;;;;;;;4.85;2.33;;;;;;;;;;5018233;28;20063;-76
2021/12/03 00:11:37;;;;;;;10.82;2.83;;;;;;;;;;5021686;28;20041;-76
2021/12/03 00:14:03;;;;;;;7.95;2.80;;;;;;;;;;5021975;28;20037;-77
2021/12/03 00:16:29;;;;;;;5.50;2.55;;;;;;;;;;5022811;28;20048;-77
2021/12/03 00:18:55;;;;;;;5.13;2.47;;;;;;;;;;5022101;28;20148;-77
2021/12/03 00:21:22;;;;;;;7.10;3.45;;;;;;;;;;5015099;28;20052;-76
2021/12/03 00:23:48;;;;;;;9.35;3.42;;;;;;;;;;5022045;28;20037;-77
2021/12/03 00:26:14;;;;;;;7.75;3.17;;;;;;;;;;5023596;28;20021;-74
2021/12/03 00:28:40;;;;;;;7.57;3.10;;;;;;;;;;5017648;28;20043;-76
2021/12/03 00:31:07;;;;;;;4.63;3.00;;;;;;;;;;5017345;28;20037;-75
2021/12/03 00:33:35;;;;;;;5.80;2.58;;;2.10;99.90;;;;;;5024434;28;20429;-75
2021/12/03 00:36:05;;;;;;;5.38;3.00;;;;;;;;;;5029624;28;20040;-75
2021/12/03 00:38:35;;;;;;;7.15;2.42;;;;;;;;;;5018311;28;20059;-75
2021/12/03 00:41:04;;;;;;;6.97;2.95;;;;;;;;;;5021687;28;20037;-75
2021/12/03 00:43:30;;;;;;;4.47;2.13;;;;;;;;;;5024446;28;20048;-76
2021/12/03 00:46:04;;;;;;;4.20;2.42;;;;;;;;;;5017103;28;20036;-74
2021/12/03 00:48:30;;;;;;;3.63;1.48;;;;;;;;;;5020997;28;20037;-76
2021/12/03 00:50:56;;;;;;;4.80;2.47;;;;;;;;;;5020171;28;20021;-75
2021/12/03 00:53:22;;;;;;;5.72;2.50;;;;;;;;;;5024204;28;20075;-76
2021/12/03 00:55:48;;;;;;;12.70;2.20;;;;;;;;;;5025267;28;20080;-76
2021/12/03 00:58:14;;;;;;;3.85;1.95;;;;;;;;;;5019081;28;20021;-75
2021/12/03 01:00:40;;;;;;;6.47;2.65;;;;;;;;;;5021583;28;20032;-75
2021/12/03 01:03:06;;;;;;;3.83;1.75;;;;;;;;;;5019020;28;20033;-76
2021/12/03 01:05:32;;;;;;;4.07;2.17;;;;;;;;;;5023073;28;20397;-76
2021/12/03 01:07:58;;;;;;;5.38;2.40;;;;;;;;;;5021071;28;20044;-75
2021/12/03 01:10:26;;;;;;;3.30;1.95;;;;;;;;;;5023423;28;20041;-76
2021/12/03 01:12:52;;;;;;;5.30;2.60;;;;;;;;;;5021855;28;20121;-75
2021/12/03 01:15:20;;;;;;;3.63;2.22;;;;;;;;;;5023371;28;20033;-76
2021/12/03 01:17:46;;;;;;;2.97;2.13;;;;;;;;;;5026905;28;20125;-76
2021/12/03 01:20:13;;;;;;;5.90;2.35;;;;;;;;;;5017524;28;20029;-75
2021/12/03 01:22:40;;;;;;;6.75;2.67;;;2.20;99.90;;;;;;5023125;28;20026;-76
2021/12/03 01:25:09;;;;;;;4.57;2.42;;;;;;;;;;5024423;28;20044;-76
2021/12/03 01:27:35;;;;;;;6.88;2.83;;;;;;;;;;5026078;28;20022;-76
2021/12/03 01:30:01;;;;;;;4.35;2.30;;;;;;;;;;5019503;28;20087;-77
2021/12/03 01:32:27;;;;;;;9.45;2.42;;;;;;;;;;5016171;28;20048;-75
2021/12/03 01:34:53;;;;;;;4.30;2.08;;;;;;;;;;5021304;28;20394;-77
2021/12/03 01:37:19;;;;;;;5.00;2.30;;;;;;;;;;5022284;28;20026;-75
2021/12/03 01:39:45;;;;;;;3.15;2.03;;;;;;;;;;5027593;28;20072;-76
2021/12/03 01:42:11;;;;;;;9.18;2.92;;;;;;;;;;5022468;28;20072;-76
2021/12/03 01:44:37;;;;;;;3.92;2.22;;;;;;;;;;5026244;28;20481;-75
2021/12/03 01:47:03;;;;;;;4.93;2.33;;;;;;;;;;5021546;28;20037;-75
2021/12/03 01:49:29;;;;;;;3.25;1.75;;;;;;;;;;5023425;28;20025;-75
2021/12/03 01:51:54;;;;;;;5.20;2.20;;;2.70;99.90;;;;;;5023246;28;20052;-76
2021/12/03 01:54:20;;;;;;;8.60;2.50;;;;;;;;;;5024752;28;20033;-76
2021/12/03 01:56:46;;;;;;;6.45;3.80;;;;;;;;;;5025899;28;20033;-76
2021/12/03 01:59:12;;;;;;;4.95;2.30;;;;;;;;;;5022674;28;20026;-76
2021/12/03 02:01:38;;;;;;;4.78;2.38;;;;;;;;;;5027102;28;20025;-75
2021/12/03 02:04:05;;;;;;;7.50;2.67;;;;;;;;;;5019976;28;20397;-75
2021/12/03 02:06:31;;;;;;;6.05;3.03;;;;;;;;;;5023097;28;20034;-75
2021/12/03 02:08:58;;;;;;;6.20;3.08;;;2.40;99.90;;;;;;5023965;28;20112;-76
2021/12/03 02:11:25;;;;;;;6.55;3.53;;;;;;;;;;5020765;28;20033;-76
2021/12/03 02:13:51;;;;;;;4.35;2.13;;;;;;;;;;5017919;28;20487;-75
2021/12/03 02:16:19;;;;;;;5.82;3.38;;;;;;;;;;5016853;28;20041;-76
2021/12/03 02:18:45;;;;;;;6.55;2.78;;;;;;;;;;5027439;28;20112;-77
2021/12/03 02:21:12;;;;;;;4.68;2.45;;;;;;;;;;5024984;28;21005;-75
2021/12/03 02:23:38;;;;;;;5.43;3.33;;;;;;;;;;5021302;28;20036;-76
2021/12/03 02:26:05;;;;;;;4.30;2.13;;;;;;;;;;5021597;28;20033;-76
2021/12/03 02:28:32;;;;;;;4.90;2.65;;;;;;;;;;5023613;28;20064;-76
2021/12/03 02:30:58;;;;;;;5.40;2.65;;;;;;;;;;5022519;28;20029;-75
2021/12/03 02:33:24;;;;;;;3.45;1.70;;;;;;;;;;5024085;28;20048;-76
2021/12/03 02:35:51;;;;;;;3.60;1.75;;;;;;;;;;5029846;28;20075;-76
2021/12/03 02:38:19;;;;;;;6.53;3.67;;;;;;;;;;5024578;28;20099;-75
2021/12/03 02:40:49;;;;;;;5.05;2.72;;;2.20;99.90;;;;;;5020557;28;20035;-76
2021/12/03 02:43:15;;;;;;;7.80;2.83;;;;;;;;;;5026354;28;20025;-76
2021/12/03 02:45:41;;;;;;;6.30;2.72;;;;;;;;;;5024850;28;20105;-76
2021/12/03 02:48:07;;;;;;;6.05;3.28;;;;;;;;;;5017562;28;20385;-77
2021/12/03 02:50:33;;;;;;;4.97;3.20;;;2.00;99.90;;;;;;5029129;28;20118;-77
2021/12/03 02:52:59;;;;;;;7.20;3.03;;;;;;;;;;5025551;28;20053;-76
2021/12/03 02:55:25;;;;;;;6.70;3.22;;;;;;;;;;5019876;28;20491;-75
2021/12/03 02:57:51;;;;;;;6.20;2.65;;;;;;;;;;5022694;28;20033;-76
2021/12/03 03:00:19;;;;;;;8.63;2.92;;;;;;;;;;5022888;28;20036;-76
2021/12/03 03:02:45;;;;;;;5.78;3.05;;;;;;;;;;5026372;28;20026;-75
2021/12/03 03:05:12;;;;;;;11.65;3.63;;;2.30;99.90;;;;;;5021393;28;20034;-76
2021/12/03 03:07:38;;;;;;;5.72;3.38;;;;;;;;;;5019963;28;20032;-75
2021/12/03 03:10:09;;;;;;;6.88;3.55;;;2.20;99.90;;;;;;5023711;28;20532;-76
2021/12/03 03:12:35;;;;;;;8.77;3.45;;;;;;;;;;5026311;28;20057;-76
2021/12/03 03:15:01;;;;;;;6.18;2.78;;;;;;;;;;5021733;28;20428;-76
2021/12/03 03:17:29;;;;;;;6.38;2.25;;;2.00;99.90;;;;;;5024279;28;20033;-76
2021/12/03 03:19:55;;;;;;;9.10;3.38;;;;;;;;;;5026730;28;20578;-76
2021/12/03 03:22:22;;;;;;;4.68;2.38;;;;;;;;;;5023620;28;20033;-76
2021/12/03 03:24:48;;;;;;;9.02;3.70;;;;;;;;;;5026019;28;20040;-76
2021/12/03 03:27:14;;;;;;;6.05;3.10;;;;;;;;;;5000142;28;20481;-76
2021/12/03 03:29:43;;;;;;;5.93;2.83;;;;;;;;;;5024465;28;20029;-76
2021/12/03 03:32:09;;;;;;;6.55;2.92;;;;;;;;;;5021573;28;20033;-75
2021/12/03 03:34:35;;;;;;;6.10;3.22;;;;;;;;;;5022101;28;20525;-76
2021/12/03 03:37:01;;;;;;;9.57;4.45;;;;;;;;;;5025650;28;20036;-75
2021/12/03 03:39:27;;;;;;;8.48;3.05;;;;;;;;;;5019182;28;20116;-76
2021/12/03 03:41:54;;;;;;;6.53;3.20;;;;;;;;;;5025950;28;20033;-76
2021/12/03 03:44:20;;;;;;;9.05;2.17;;;;;;;;;;5024485;28;20037;-76
2021/12/03 03:46:46;;;;;;;6.32;2.47;;;;;;;;;;5012198;28;20108;-76
2021/12/03 03:49:12;;;;;;;8.07;3.97;;;;;;;;;;5027529;28;20552;-76
2021/12/03 03:51:39;;;;;;;3.97;2.08;;;;;;;;;;5023493;28;20429;-76
2021/12/03 03:54:05;;;;;;;6.18;2.95;;;;;;;;;;5019300;28;20474;-75
2021/12/03 03:56:31;;;;;;;7.25;3.10;;;;;;;;;;5022376;28;20044;-75
2021/12/03 03:58:57;;;;;;;4.03;2.53;;;;;;;;;;5021431;28;20119;-76
2021/12/03 04:01:23;;;;;;;8.50;2.63;;;;;;;;;;5022816;28;20575;-75
2021/12/03 04:03:50;;;;;;;11.55;2.47;;;;;;;;;;5023072;28;20033;-75
2021/12/03 04:06:19;;;;;;;7.30;3.50;;;;;;;;;;5018906;28;20039;-74
2021/12/03 04:08:46;;;;;;;5.28;3.13;;;;;;;;;;5022076;28;20029;-75
2021/12/03 04:11:13;;;;;;;4.88;2.70;;;;;;;;;;5024481;28;20033;-76
2021/12/03 04:13:39;;;;;;;6.20;2.97;;;;;;;;;;5022723;28;20079;-75
2021/12/03 04:16:05;;;;;;;8.88;3.88;;;;;;;;;;5025218;28;20412;-76
2021/12/03 04:18:31;;;;;;;8.55;3.08;;;;;;;;;;5020691;28;20030;-75
2021/12/03 04:20:57;;;;;;;8.43;3.15;;;;;;;;;;5019022;28;20774;-75
2021/12/03 04:23:23;;;;;;;8.77;3.55;;;;;;;;;;5019681;28;20097;-76
2021/12/03 04:25:49;;;;;;;10.30;3.88;;;;;;;;;;5024649;28;20025;-76
2021/12/03 04:28:16;;;;;;;6.72;3.05;;;;;;;;;;5019761;28;20041;-75
2021/12/03 04:30:42;;;;;;;8.52;3.08;;;;;;;;;;5019572;28;20388;-75
2021/12/03 04:33:08;;;;;;;10.77;3.88;;;;;;;;;;5032961;28;20037;-76
2021/12/03 04:35:34;;;;;;;7.97;3.35;;;;;;;;;;5021360;28;20420;-75
2021/12/03 04:38:00;;;;;;;4.88;2.53;;;;;;;;;;5023060;28;20110;-75
2021/12/03 04:40:27;;;;;;;6.00;2.53;;;;;;;;;;5020726;28;20030;-76
2021/12/03 04:42:53;;;;;;;7.05;2.78;;;;;;;;;;5016619;28;20029;-74
2021/12/03 04:45:21;;;;;;;8.55;3.92;;;;;;;;;;5018070;28;20052;-75
2021/12/03 04:47:48;;;;;;;7.90;3.72;;;;;;;;;;5023460;28;20026;-76
2021/12/03 04:50:14;;;;;;;5.80;3.33;;;;;;;;;;5021291;28;20029;-75
2021/12/03 04:52:40;;;;;;;8.57;3.60;;;;;;;;;;5014988;28;20044;-76
2021/12/03 04:55:08;;;;;;;6.90;2.60;;;;;;;;;;5021056;28;20033;-75
2021/12/03 04:57:34;;;;;;;9.90;3.67;;;;;;;;;;5013918;28;20030;-75
2021/12/03 05:00:01;;;;;;;5.72;2.38;;;;;;;;;;5025368;28;20030;-75
2021/12/03 05:02:27;;;;;;;7.05;3.15;;;;;;;;;;5018029;28;20803;-75
2021/12/03 05:04:55;;;;;;;5.60;2.67;;;;;;;;;;5014421;28;20034;-75
2021/12/03 05:09:54;;;;;;;7.38;3.75;;;;;;;;;;5027247;28;20048;-75
2021/12/03 05:12:19;;;;;;;4.65;2.42;;;;;;;;;;5016608;28;20045;-75
2021/12/03 05:14:45;;;;;;;9.23;4.00;;;;;;;;;;5024345;28;20463;-75
2021/12/03 05:17:11;;;;;;;8.52;3.65;;;;;;;;;;5020104;28;20072;-75
2021/12/03 05:19:37;;;;;;;4.97;2.70;;;;;;;;;;5017966;28;20032;-75
2021/12/03 05:22:03;;;;;;;4.97;3.30;;;;;;;;;;5021946;28;20034;-76
2021/12/03 05:24:29;;;;;;;13.30;5.32;;;;;;;;;;5023193;28;20030;-76
2021/12/03 05:26:55;;;;;;;7.32;3.45;;;;;;;;;;5016329;28;20044;-75
2021/12/03 05:29:22;;;;;;;8.90;4.15;;;;;;;;;;5017282;28;20391;-76
2021/12/03 05:31:48;;;;;;;6.18;3.03;;;;;;;;;;5020914;28;20052;-76
2021/12/03 05:34:15;;;;;;;6.63;3.17;;;;;;;;;;5025274;28;20025;-76
2021/12/03 05:36:42;;;;;;;5.53;3.15;;;;;;;;;;5014550;28;20044;-75
2021/12/03 05:39:08;;;;;;;5.95;3.22;;;;;;;;;;5018658;28;20021;-75
2021/12/03 05:41:35;;;;;;;7.63;4.40;;;0.60;99.90;;;;;;5018042;28;20063;-76
2021/12/03 05:44:01;;;;;;;4.43;2.45;;;;;;;;;;5018275;28;21674;-75
2021/12/03 05:46:27;;;;;;;5.70;2.58;;;;;;;;;;5015005;28;20029;-74
2021/12/03 05:48:52;;;;;;;5.07;3.33;;;0.30;99.90;;;;;;5019922;28;20048;-76
2021/12/03 05:51:19;;;;;;;11.98;4.28;;;;;;;;;;5018176;28;20188;-74
2021/12/03 05:53:45;;;;;;;6.90;3.42;;;;;;;;;;5015164;28;20066;-74
2021/12/03 05:56:10;;;;;;;9.18;4.45;;;;;;;;;;5022577;28;20089;-74
2021/12/03 05:58:37;;;;;;;8.10;3.20;;;;;;;;;;5016688;28;20025;-75
2021/12/03 06:01:03;;;;;;;7.80;3.67;;;;;;;;;;5019385;28;20485;-74
2021/12/03 06:03:29;;;;;;;8.95;4.07;;;;;;;;;;5017672;28;20545;-75
2021/12/03 06:05:55;;;;;;;10.50;4.15;;;;;;;;;;5017672;28;20029;-74
2021/12/03 06:08:21;;;;;;;8.02;3.78;;;;;;;;;;5018438;28;20555;-75
2021/12/03 06:10:47;;;;;;;5.13;3.08;;;;;;;;;;5020443;28;20029;-75
2021/12/03 06:13:13;;;;;;;6.78;3.88;;;;;;;;;;5013351;28;20038;-76
2021/12/03 06:15:39;;;;;;;7.75;3.20;;;;;;;;;;5028090;28;20480;-76
2021/12/03 06:18:05;;;;;;;6.28;3.97;;;;;;;;;;5018086;28;20041;-74
2021/12/03 06:20:31;;;;;;;7.38;3.28;;;;;;;;;;5024230;28;20030;-75
2021/12/03 06:22:57;;;;;;;10.05;4.35;;;;;;;;;;5020161;28;20050;-75
2021/12/03 06:25:23;;;;;;;9.52;4.22;;;;;;;;;;5029935;28;20022;-75
2021/12/03 06:27:49;;;;;;;10.48;3.88;;;;;;;;;;5027381;28;20072;-76
2021/12/03 06:30:20;;;;;;;8.73;3.45;;;0.70;99.90;;;;;;5031504;28;20029;-76
2021/12/03 06:32:46;;;;;;;6.95;2.67;;;;;;;;;;5027291;28;20037;-75
2021/12/03 06:35:16;;;;;;;6.05;2.85;;;;;;;;;;5026869;28;20026;-75
2021/12/03 06:37:42;;;;;;;5.90;4.10;;;;;;;;;;5025596;28;20064;-75
2021/12/03 06:40:10;;;;;;;12.63;4.57;;;;;;;;;;5025928;28;20030;-75
2021/12/03 06:42:36;;;;;;;10.95;4.03;;;;;;;;;;5026391;28;20034;-76
2021/12/03 06:45:04;;;;;;;9.57;4.53;;;;;;;;;;5024965;28;20024;-76
2021/12/03 06:47:31;;;;;;;9.00;4.00;;;;;;;;;;5016523;28;20567;-76
2021/12/03 06:49:57;;;;;;;6.63;4.03;;;;;;;;;;5024262;28;20034;-74
2021/12/03 06:52:23;;;;;;;16.45;8.10;;;;;;;;;;5021302;28;20045;-75
2021/12/03 06:54:56;;;;;;;8.10;4.22;;;;;;;;;;5031184;28;20484;-75
2021/12/03 06:57:22;;;;;;;7.72;4.45;;;;;;;;;;5025851;28;20045;-75
2021/12/03 06:59:48;;;;;;;10.05;4.82;;;;;;;;;;5021348;28;20374;-75
2021/12/03 07:02:14;;;;;;;6.25;3.00;;;;;;;;;;5029924;28;20044;-75
2021/12/03 07:04:40;;;;;;;10.27;3.95;;;;;;;;;;5023821;28;20033;-75
2021/12/03 07:07:07;;;;;;;10.82;4.47;;;;;;;;;;5032266;28;20029;-75
2021/12/03 07:09:33;;;;;;;11.98;4.80;;;;;;;;;;5028847;28;20025;-75
2021/12/03 07:11:59;;;;;;;9.15;5.22;;;;;;;;;;5023439;28;20436;-75
2021/12/03 07:14:25;;;;;;;8.75;4.53;;;;;;;;;;5029725;28;20059;-76
2021/12/03 07:16:51;;;;;;;8.50;3.65;;;;;;;;;;5031342;28;20449;-75
2021/12/03 07:19:17;;;;;;;9.15;3.53;;;;;;;;;;5027720;28;20032;-75
2021/12/03 07:21:43;;;;;;;7.40;3.58;;;;;;;;;;5024406;28;20117;-76
2021/12/03 07:24:09;;;;;;;6.32;3.63;;;;;;;;;;5024220;28;20490;-76
2021/12/03 07:26:35;;;;;;;6.90;3.30;;;;;;;;;;5024298;28;20034;-75
2021/12/03 07:29:01;;;;;;;6.10;3.55;;;;;;;;;;5021543;28;20481;-75
2021/12/03 07:31:27;;;;;;;5.63;3.45;;;;;;;;;;5025678;28;20060;-74
2021/12/03 07:33:55;;;;;;;7.68;3.83;;;;;;;;;;5027865;28;20075;-76
2021/12/03 07:36:21;;;;;;;3.63;2.65;;;;;;;;;;5030505;28;20025;-77
2021/12/03 07:38:47;;;;;;;4.80;3.40;;;;;;;;;;5030143;28;20022;-75
2021/12/03 07:41:13;;;;;;;5.82;3.00;;;;;;;;;;5024465;28;20413;-76
2021/12/03 07:43:39;;;;;;;7.05;3.60;;;;;;;;;;5022001;28;20109;-75
2021/12/03 07:46:05;;;;;;;7.60;4.05;;;;;;;;;;5017583;28;20442;-76
2021/12/03 07:48:31;;;;;;;6.05;4.00;;;;;;;;;;5030082;28;20018;-76
2021/12/03 07:50:57;;;;;;;6.28;3.13;;;;;;;;;;5026916;28;20021;-75
2021/12/03 07:53:24;;;;;;;4.70;2.85;;;;;;;;;;5028252;28;20045;-76
2021/12/03 07:55:51;;;;;;;7.60;2.97;;;;;;;;;;5023393;28;20120;-75
2021/12/03 07:58:17;;;;;;;6.47;2.33;;;;;;;;;;5032053;28;20087;-76
2021/12/03 08:00:44;;;;;;;4.95;2.75;;;;;;;;;;5022840;28;20049;-75
2021/12/03 08:03:10;;;;;;;3.42;2.30;;;;;;;;;;5026205;28;20025;-74
2021/12/03 08:05:36;;;;;;;5.65;2.35;;;;;;;;;;5030340;28;20021;-75
2021/12/03 08:08:02;;;;;;;7.30;3.08;;;1.50;99.90;;;;;;5029912;28;20032;-75
2021/12/03 08:10:28;;;;;;;5.20;2.42;;;;;;;;;;5021233;28;20029;-75
2021/12/03 08:12:54;;;;;;;5.13;2.55;;;;;;;;;;5018859;28;20754;-76
2021/12/03 08:15:20;;;;;;;5.53;2.50;;;;;;;;;;5040660;28;20116;-75
2021/12/03 08:17:49;;;;;;;5.25;2.65;;;;;;;;;;5027239;28;20124;-76
2021/12/03 08:20:16;;;;;;;6.15;2.60;;;;;;;;;;5027058;28;20030;-76
2021/12/03 08:22:42;;;;;;;10.07;3.58;;;;;;;;;;5019769;28;20201;-75
2021/12/03 08:25:08;;;;;;;5.80;3.65;;;;;;;;;;5025533;28;20079;-76
2021/12/03 08:27:34;;;;;;;8.70;3.13;;;;;;;;;;5020642;28;20025;-75
2021/12/03 08:30:00;;;;;;;4.50;2.78;;;;;;;;;;5026800;28;20033;-75
2021/12/03 08:32:26;;;;;;;10.32;3.30;;;;;;;;;;5022152;28;20041;-75
2021/12/03 08:34:53;;;;;;;17.88;3.80;;;;;;;;;;5024732;28;20362;-75
2021/12/03 08:37:19;;;;;;;8.43;2.28;;;;;;;;;;5025896;28;20047;-75
2021/12/03 08:39:45;;;;;;;4.35;1.92;;;;;;;;;;5020177;28;20040;-76
2021/12/03 08:42:12;;;;;;;3.75;1.63;;;;;;;;;;5027108;28;20477;-75
2021/12/03 08:44:38;;;;;;;7.07;3.15;;;;;;;;;;5018960;28;20045;-76
2021/12/03 08:47:06;;;;;;;3.30;1.70;;;;;;;;;;5028955;28;20033;-77
2021/12/03 08:49:36;;;;;;;8.13;2.92;;;;;;;;;;5030854;28;20036;-75
2021/12/03 08:57:18;;;;;;;8.57;3.38;;;;;;;;;;5024702;28;20115;-76
2021/12/03 08:59:44;;;;;;;4.32;3.08;;;;;;;;;;5024698;28;20104;-76
2021/12/03 09:02:10;;;;;;;4.40;2.20;;;;;;;;;;5028811;28;20451;-75
2021/12/03 09:04:36;;;;;;;4.50;2.25;;;;;;;;;;5028785;28;20530;-76
2021/12/03 09:07:04;;;;;;;2.88;2.35;;;;;;;;;;5016759;28;20422;-77
2021/12/03 09:09:30;;;;;;;4.57;2.10;;;;;;;;;;5022543;28;20034;-76
2021/12/03 09:11:56;;;;;;;3.88;2.72;;;;;;;;;;5029566;28;20221;-76
2021/12/03 09:14:28;;;;;;;6.60;2.17;;;;;;;;;;5028155;28;20025;-76
2021/12/03 09:20:25;;;;;;;8.35;2.53;;;;;;;;;;5025834;28;20435;-76
2021/12/03 09:24:54;;;;;;;6.00;2.35;;;;;;;;;;5021714;28;20567;-77
2021/12/03 09:27:20;;;;;;;11.05;2.45;;;;;;;;;;5027152;28;20046;-76
2021/12/03 09:29:47;;;;;;;4.60;2.35;;;;;;;;;;5022228;28;20079;-76
2021/12/03 09:32:21;;;;;;;4.78;2.58;;;;;;;;;;5027757;28;20037;-76
2021/12/03 09:34:47;;;;;;;5.53;3.17;;;;;;;;;;5027805;28;20060;-76
2021/12/03 09:37:13;;;;;;;7.20;3.47;;;;;;;;;;5025855;28;20033;-76
2021/12/03 09:39:44;;;;;;;5.60;2.78;;;;;;;;;;5025000;28;20470;-76
2021/12/03 09:42:10;;;;;;;4.38;2.10;;;;;;;;;;5019542;28;20042;-76
2021/12/03 09:44:40;;;;;;;6.70;2.78;;;;;;;;;;5011737;28;20087;-76
2021/12/03 09:47:06;;;;;;;10.05;3.22;;;;;;;;;;5029713;28;20059;-77
2021/12/03 09:49:37;;;;;;;3.70;2.10;;;;;;;;;;5019314;28;20033;-74
2021/12/03 09:54:45;;;;;;;14.00;2.75;;;2.30;99.90;;;;;;5024553;28;20040;-76
2021/12/03 09:57:14;;;;;;;2.17;1.75;;;;;;;;;;5022761;28;20089;-76
2021/12/03 10:02:24;;;;;;;3.15;1.83;;;;;;;;;;5021557;28;20045;-76
2021/12/03 10:05:54;;;;;;;3.85;2.03;;;;;;;;;;5029927;28;20026;-76
2021/12/03 10:16:01;;;;;;;6.80;2.78;;;;;;;;;;5032297;28;20077;-75
2021/12/03 10:18:41;;;;;;;4.45;2.45;;;;;;;;;;5028271;28;20033;-76
2021/12/03 10:21:36;;;;;;;2.28;1.73;;;;;;;;;;5025488;28;20033;-76
2021/12/03 10:24:35;;;;;;;9.20;1.42;;;;;;;;;;5023923;28;20070;-76
2021/12/03 10:30:16;;;;;;;2.45;1.50;;;;;;;;;;5032454;28;20091;-76
2021/12/03 10:38:11;;;;;;;9.70;1.80;;;1.70;99.90;;;;;;5024382;28;20124;-75
2021/12/03 10:48:51;;;;;;;3.00;1.85;;;;;;;;;;5029982;28;20033;-77
2021/12/03 10:57:06;;;;;;;1.48;1.20;;;;;;;;;;5029358;28;20037;-75
2021/12/03 11:02:18;;;;;;;1.20;1.08;;;1.90;99.90;;;;;;5030742;28;20021;-76
2021/12/03 11:07:25;;;;;;;9.30;1.23;;;;;;;;;;5025396;28;20419;-75
2021/12/03 11:16:03;;;;;;;2.25;1.15;;;;;;;;;;5005481;28;20033;-76
2021/12/03 11:34:44;;;;;;;4.03;1.00;;;;;;;;;;5016639;28;20065;-78
2021/12/03 11:49:11;;;;;;;3.95;1.60;;;;;;;;;;5027235;28;20491;-75
2021/12/03 12:15:01;;;;;;;1.35;1.05;;;;;;;;;;5006303;28;20065;-77
2021/12/03 12:17:37;;;;;;;5.07;1.00;;;;;;;;;;5004008;28;20209;-77
2021/12/03 12:25:39;;;;;;;1.52;1.05;;;;;;;;;;5028431;28;20040;-76
2021/12/03 12:39:34;;;;;;;3.83;1.02;;;;;;;;;;5026258;28;20035;-77
2021/12/03 13:22:51;;;;;;;1.88;1.05;;;3.60;99.90;;;;;;5024601;28;20040;-76
2021/12/03 13:25:35;;;;;;;2.05;1.13;;;;;;;;;;5023526;28;20068;-77
2021/12/03 14:09:07;;;;;;;1.52;1.20;;;;;;;;;;5027130;28;20064;-77
2021/12/03 14:45:28;;;;;;;1.83;0.98;;;;;;;;;;4998260;28;20064;-78
2021/12/03 14:55:37;;;;;;;3.70;1.10;;;;;;;;;;5019634;28;20090;-79
2021/12/03 14:58:08;;;;;;;4.30;1.05;;;;;;;;;;5017110;28;20025;-78
2021/12/03 15:03:09;;;;;;;1.65;1.10;;;;;;;;;;5026625;28;20022;-78
2021/12/03 15:08:20;;;;;;;1.83;1.20;;;;;;;;;;5028518;28;20132;-78
2021/12/03 15:14:06;;;;;;;2.20;0.93;;;;;;;;;;5030889;28;20473;-77
2021/12/03 15:18:58;;;;;;;0.73;0.68;;;;;;;;;;5027861;28;20037;-78
2021/12/03 15:56:08;;;;;;;3.95;1.02;;;;;;;;;;5032796;28;20148;-79
2021/12/03 16:04:12;;;;;;;1.33;1.00;;;;;;;;;;5024304;28;20747;-78
2021/12/03 16:12:02;;;;;;;2.35;0.95;;;;;;;;;;5025203;28;20107;-79
2021/12/03 16:17:34;;;;;;;1.30;0.88;;;;;;;;;;5017231;28;20105;-78
2021/12/03 16:23:14;;;;;;;2.35;0.73;;;;;;;;;;5027372;28;20044;-79
2021/12/03 16:45:00;;;;;;;1.02;0.50;;;;;;;;;;5023220;28;20049;-77
2021/12/03 16:47:59;;;;;;;2.17;1.45;;;;;;;;;;5018664;28;20108;-79
2021/12/03 16:50:54;;;;;;;0.40;0.40;;;;;;;;;;5022066;28;20087;-78
2021/12/03 16:53:27;;;;;;;0.60;0.50;;;;;;;;;;5017492;28;20041;-78
2021/12/03 16:56:07;;;;;;;3.53;1.38;;;;;;;;;;5016706;28;20679;-78
2021/12/03 16:58:34;;;;;;;6.53;1.17;;;;;;;;;;5021083;28;20034;-80
2021/12/03 17:04:02;;;;;;;1.15;1.08;;;;;;;;;;5020729;28;20040;-78
2021/12/03 17:12:24;;;;;;;4.85;1.80;;;;;;;;;;5020047;28;20068;-77
2021/12/03 17:18:22;;;;;;;3.40;1.23;;;;;;;;;;5021945;28;20087;-77
2021/12/03 17:44:32;;;;;;;1.05;0.95;;;;;;;;;;5017719;28;20618;-76
2021/12/03 17:59:55;;;;;;;8.98;1.75;;;;;;;;;;5011804;28;20044;-78
2021/12/03 18:05:22;;;;;;;1.67;1.13;;;;;;;;;;5018949;28;20048;-78
2021/12/03 18:45:20;;;;;;;3.55;1.40;;;;;;;;;;5026728;28;20087;-78
2021/12/03 18:55:53;;;;;;;1.85;1.05;;;;;;;;;;5021455;28;20564;-77
2021/12/03 18:58:21;;;;;;;4.40;1.75;;;;;;;;;;5021827;28;20103;-77
2021/12/03 19:00:47;;;;;;;1.50;1.10;;;;;;;;;;5030119;28;20038;-77
2021/12/03 19:08:51;;;;;;;1.60;0.85;;;;;;;;;;5025886;28;20128;-78
2021/12/03 19:11:33;;;;;;;2.88;1.90;;;;;;;;;;5022578;28;20065;-77
2021/12/03 19:13:59;;;;;;;2.63;1.60;;;;;;;;;;5019437;28;20049;-76
2021/12/03 19:16:25;;;;;;;2.58;1.70;;;;;;;;;;5025479;28;20025;-76
2021/12/03 19:18:54;;;;;;;1.25;0.98;;;2.10;99.90;;;;;;5022873;28;20044;-77
2021/12/03 19:21:23;;;;;;;1.13;0.95;;;;;;;;;;5023058;28;20037;-77
2021/12/03 19:23:57;;;;;;;1.45;0.82;;;;;;;;;;5019318;28;20030;-77
2021/12/03 19:26:24;;;;;;;3.38;1.00;;;;;;;;;;5020391;28;20036;-77
2021/12/03 19:28:50;;;;;;;1.52;0.60;;;;;;;;;;5021520;28;20021;-76
2021/12/03 19:31:17;;;;;;;3.47;1.67;;;;;;;;;;5022462;28;20095;-76
2021/12/03 19:33:44;;;;;;;2.72;1.13;;;;;;;;;;5018353;28;20124;-77
2021/12/03 19:36:10;;;;;;;1.42;0.73;;;;;;;;;;5027291;28;20021;-78
2021/12/03 19:38:38;;;;;;;0.80;0.70;;;;;;;;;;5023596;28;20040;-79
2021/12/03 19:41:13;;;;;;;1.65;1.02;;;;;;;;;;5022600;28;20029;-78
2021/12/03 19:43:52;;;;;;;1.20;1.10;;;;;;;;;;5023270;28;20037;-77
2021/12/03 19:46:20;;;;;;;0.85;0.68;;;;;;;;;;5021044;28;20037;-78
2021/12/03 19:51:25;;;;;;;0.98;0.75;;;;;;;;;;5021429;28;20052;-77
2021/12/03 19:56:22;;;;;;;0.95;0.68;;;;;;;;;;5028121;28;20091;-77
2021/12/03 19:58:48;;;;;;;3.30;0.90;;;;;;;;;;5027952;28;20029;-77
2021/12/03 20:01:14;;;;;;;2.75;1.40;;;;;;;;;;5024956;28;20046;-78
2021/12/03 20:03:40;;;;;;;0.90;0.82;;;;;;;;;;5027757;28;20120;-79
2021/12/03 20:06:06;;;;;;;1.52;0.90;;;1.80;99.90;;;;;;5026685;28;20076;-79
2021/12/03 20:08:34;;;;;;;2.08;0.90;;;;;;;;;;5014288;28;20172;-78
2021/12/03 20:11:04;;;;;;;3.33;2.22;;;;;;;;;;5029540;28;20378;-79
2021/12/03 20:13:30;;;;;;;2.47;1.50;;;;;;;;;;5022553;28;20500;-79
2021/12/03 20:18:52;;;;;;;3.95;1.38;;;;;;;;;;5013338;28;20048;-79
2021/12/03 20:21:20;;;;;;;1.60;0.95;;;;;;;;;;5026061;28;20040;-79
2021/12/03 20:24:18;;;;;;;1.05;0.93;;;;;;;;;;5025700;28;20109;-79
2021/12/03 20:26:53;;;;;;;0.93;0.70;;;;;;;;;;5031589;28;20044;-79
2021/12/03 20:32:20;;;;;;;1.70;0.88;;;;;;;;;;5020826;28;20056;-79
2021/12/03 20:37:16;;;;;;;1.20;0.80;;;;;;;;;;5031460;28;20120;-80
2021/12/03 20:39:43;;;;;;;2.38;1.40;;;;;;;;;;5028786;28;20463;-78
2021/12/03 20:42:19;;;;;;;1.33;0.93;;;;;;;;;;5027917;28;20076;-79
2021/12/03 20:50:21;;;;;;;1.92;1.25;;;;;;;;;;5021841;28;20405;-77
2021/12/03 20:53:32;;;;;;;2.40;0.95;;;;;;;;;;5019446;28;20159;-79
2021/12/03 20:59:26;;;;;;;0.95;0.73;;;;;;;;;;5023788;28;20125;-79
2021/12/03 21:09:25;;;;;;;7.90;4.80;;;;;;;;;;5019691;28;20067;-79
2021/12/03 21:11:56;;;;;;;14.57;6.47;;;;;;;;;;5024097;28;20037;-78
2021/12/03 21:14:28;;;;;;;7.40;3.80;;;;;;;;;;5026920;28;20488;-80
2021/12/03 21:19:37;;;;;;;4.28;1.75;;;;;;;;;;5023407;28;20440;-79
2021/12/03 21:22:14;;;;;;;4.50;1.27;;;;;;;;;;5019684;28;20041;-78
2021/12/03 21:24:42;;;;;;;2.53;1.15;;;;;;;;;;5022319;28;20029;-78
2021/12/03 21:27:14;;;;;;;2.88;1.00;;;;;;;;;;5024345;28;20040;-79
2021/12/03 21:32:19;;;;;;;3.42;1.50;;;;;;;;;;5023816;28;20057;-77
2021/12/03 21:42:40;;;;;;;4.05;1.25;;;;;;;;;;5027555;28;20180;-78
2021/12/03 21:45:07;;;;;;;3.78;1.48;;;;;;;;;;5023794;28;20465;-78
2021/12/03 21:47:33;;;;;;;2.90;1.40;;;;;;;;;;5021277;28;20041;-78
2021/12/03 21:49:59;;;;;;;7.60;2.15;;;;;;;;;;5023570;28;20117;-79
2021/12/03 21:52:26;;;;;;;1.55;1.05;;;;;;;;;;5020144;28;20034;-77
2021/12/03 21:54:52;;;;;;;1.80;1.42;;;;;;;;;;5027364;28;20028;-77
2021/12/03 21:57:19;;;;;;;1.33;0.70;;;;;;;;;;5030559;28;20036;-77
2021/12/03 21:59:45;;;;;;;2.78;1.42;;;;;;;;;;5027947;28;20049;-78
2021/12/03 22:02:11;;;;;;;2.20;1.10;;;;;;;;;;5025301;28;20036;-77
2021/12/03 22:04:37;;;;;;;3.20;1.38;;;;;;;;;;5028956;28;20018;-77
2021/12/03 22:07:10;;;;;;;4.70;1.42;;;;;;;;;;5034745;28;20036;-78
2021/12/03 22:09:36;;;;;;;3.08;1.00;;;;;;;;;;5026286;28;20033;-77
2021/12/03 22:12:02;;;;;;;3.20;1.35;;;;;;;;;;5032738;28;20041;-78
2021/12/03 22:14:28;;;;;;;4.13;1.02;;;;;;;;;;5027515;28;20038;-76
2021/12/03 22:16:54;;;;;;;1.88;0.85;;;;;;;;;;5028501;28;20025;-76
2021/12/03 22:19:20;;;;;;;1.70;1.27;;;;;;;;;;5027712;28;20029;-78
2021/12/03 22:21:46;;;;;;;2.00;1.33;;;;;;;;;;5034803;28;20025;-78
2021/12/03 22:24:12;;;;;;;1.15;0.70;;;;;;;;;;5028057;28;20044;-78
2021/12/03 22:26:39;;;;;;;0.88;0.77;;;;;;;;;;5026286;28;20052;-76
2021/12/03 22:29:05;;;;;;;1.48;1.15;;;;;;;;;;5031129;28;20037;-78
2021/12/03 22:31:31;;;;;;;1.13;0.85;;;;;;;;;;5030112;28;20025;-78
2021/12/03 22:33:57;;;;;;;0.77;0.68;;;;;;;;;;5031563;28;20053;-78
2021/12/03 22:36:23;;;;;;;1.30;1.20;;;;;;;;;;5027214;28;20025;-77
2021/12/03 22:38:49;;;;;;;2.72;1.27;;;;;;;;;;5021590;28;20021;-78
2021/12/03 22:41:15;;;;;;;1.45;0.88;;;;;;;;;;5031498;28;20025;-78